createdAt,value
2019-04-27T00:02:23.045Z,100068.74
2019-04-27T00:05:00.448Z,100074.45
2019-04-27T00:07:39.623Z,100077.80
2019-04-27T00:10:13.740Z,100081.10
2019-04-27T00:12:45.497Z,100087.11
2019-04-27T00:15:24.680Z,100077.44
2019-04-27T00:17:58.494Z,100082.95
2019-04-27T00:20:49.984Z,100083.96
2019-04-27T00:23:26.391Z,100082.27
2019-04-27T00:25:59.311Z,100086.86
2019-04-27T00:28:31.201Z,100083.67
2019-04-27T00:31:03.417Z,100084.38
2019-04-27T00:33:35.547Z,100084.01
2019-04-27T00:36:18.034Z,100086.07
2019-04-27T00:38:54.128Z,100087.58
2019-04-27T00:41:26.968Z,100089.34
2019-04-27T00:43:58.534Z,100087.92
2019-04-27T00:46:30.263Z,100094.13
2019-04-27T00:49:03.599Z,100102.70
2019-04-27T00:51:35.641Z,100103.69
2019-04-27T00:54:07.449Z,100114.11
2019-04-27T00:56:56.862Z,100111.52
2019-04-27T00:59:46.463Z,100111.34
2019-04-27T01:02:18.121Z,100116.14
2019-04-27T01:04:50.150Z,100125.84
2019-04-27T01:07:22.736Z,100136.70
2019-04-27T01:09:55.556Z,100152.74
2019-04-27T01:12:27.211Z,100147.30
2019-04-27T01:14:59.946Z,100152.42
2019-04-27T01:17:31.988Z,100154.58
2019-04-27T01:20:04.200Z,100167.84
2019-04-27T01:22:39.205Z,100165.05
2019-04-27T01:25:11.484Z,100156.22
2019-04-27T01:28:03.333Z,100159.14
2019-04-27T01:30:46.141Z,100169.03
2019-04-27T01:33:19.793Z,100161.50
2019-04-27T01:35:51.748Z,100155.20
2019-04-27T01:38:23.493Z,100162.67
2019-04-27T01:40:55.263Z,100168.41
2019-04-27T01:43:28.514Z,100164.53
2019-04-27T01:46:01.070Z,100164.84
2019-04-27T01:48:33.276Z,100174.84
2019-04-27T01:51:05.416Z,100175.84
2019-04-27T01:53:38.883Z,100185.03
2019-04-27T01:56:10.727Z,100193.88
2019-04-27T01:58:42.466Z,100195.07
2019-04-27T02:01:18.767Z,100199.74
2019-04-27T02:03:59.770Z,100203.77
2019-04-27T02:06:31.778Z,100211.77
2019-04-27T02:09:03.619Z,100213.37
2019-04-27T02:11:38.804Z,100220.72
2019-04-27T02:14:10.964Z,100225.69
2019-04-27T02:16:42.681Z,100225.09
2019-04-27T02:19:15.595Z,100227.02
2019-04-27T02:21:47.367Z,100230.34
2019-04-27T02:24:20.696Z,100245.01
2019-04-27T02:26:52.726Z,100227.16
2019-04-27T02:29:34.968Z,100230.74
2019-04-27T02:32:10.519Z,100227.30
2019-04-27T02:34:52.403Z,100231.67
2019-04-27T02:37:24.063Z,100227.30
2019-04-27T02:39:56.475Z,100227.15
2019-04-27T02:42:29.864Z,100231.95
2019-04-27T02:45:01.400Z,100240.99
2019-04-27T02:47:33.270Z,100239.50
2019-04-27T02:50:05.859Z,100232.32
2019-04-27T02:52:40.413Z,100228.09
2019-04-27T02:55:13.240Z,100231.06
2019-04-27T02:57:44.886Z,100238.11
2019-04-27T03:00:17.193Z,100232.75
2019-04-27T03:02:51.256Z,100247.86
2019-04-27T03:05:26.243Z,100246.66
2019-04-27T03:07:59.752Z,100250.19
2019-04-27T03:10:32.511Z,100254.63
2019-04-27T03:13:14.886Z,100251.50
2019-04-27T03:16:00.527Z,100259.41
2019-04-27T03:18:34.049Z,100266.74
2019-04-27T03:21:13.006Z,100264.06
2019-04-27T03:23:43.623Z,100265.05
2019-04-27T03:26:19.636Z,100270.13
2019-04-27T03:28:53.328Z,100277.40
2019-04-27T03:31:25.986Z,100275.34
2019-04-27T03:34:03.428Z,100242.58
2019-04-27T03:36:31.999Z,100249.22
2019-04-27T03:39:05.371Z,100259.69
2019-04-27T03:41:37.430Z,100254.86
2019-04-27T03:44:09.455Z,100267.83
2019-04-27T03:46:41.080Z,100266.27
2019-04-27T03:49:28.022Z,100268.33
2019-04-27T03:51:49.818Z,100265.86
2019-04-27T03:54:22.901Z,100273.62
2019-04-27T03:56:56.276Z,100271.40
2019-04-27T03:59:33.226Z,100269.21
2019-04-27T04:02:05.110Z,100275.84
2019-04-27T04:04:36.955Z,100279.59
2019-04-27T04:07:15.092Z,100282.19
2019-04-27T04:09:50.067Z,100281.17
2019-04-27T04:12:22.805Z,100293.72
2019-04-27T04:14:54.813Z,100298.59
2019-04-27T04:17:30.706Z,100299.30
2019-04-27T04:20:02.466Z,100305.94
2019-04-27T04:22:34.321Z,100313.84
2019-04-27T04:25:10.486Z,100309.11
2019-04-27T04:27:42.806Z,100300.99
2019-04-27T04:30:16.314Z,100300.19
2019-04-27T04:32:49.831Z,100293.52
2019-04-27T04:35:25.990Z,100304.45
2019-04-27T04:38:00.234Z,100309.42
2019-04-27T04:40:33.503Z,100306.04
2019-04-27T04:43:12.881Z,100312.11
2019-04-27T04:46:01.629Z,100319.45
2019-04-27T04:48:33.373Z,100324.28
2019-04-27T04:51:05.139Z,100328.52
2019-04-27T04:53:36.890Z,100330.34
2019-04-27T04:56:10.723Z,100331.05
2019-04-27T04:58:42.522Z,100340.02
2019-04-27T05:01:14.256Z,100346.23
2019-04-27T05:03:46.002Z,100352.58
2019-04-27T05:06:18.966Z,100355.58
2019-04-27T05:08:51.922Z,100351.77
2019-04-27T05:11:23.752Z,100354.45
2019-04-27T05:13:55.515Z,100347.71
2019-04-27T05:16:28.625Z,100345.48
2019-04-27T05:19:00.884Z,100342.65
2019-04-27T05:21:34.056Z,100338.63
2019-04-27T05:24:06.436Z,100341.95
2019-04-27T05:26:39.740Z,100348.40
2019-04-27T05:29:11.962Z,100348.48
2019-04-27T05:31:43.714Z,100352.56
2019-04-27T05:34:15.451Z,100354.25
2019-04-27T05:36:48.797Z,100354.02
2019-04-27T05:39:25.161Z,100369.98
2019-04-27T05:41:54.074Z,100370.19
2019-04-27T05:44:30.313Z,100369.34
2019-04-27T05:47:15.715Z,100376.09
2019-04-27T05:49:48.555Z,100386.88
2019-04-27T05:52:29.969Z,100381.86
2019-04-27T05:55:02.969Z,100379.35
2019-04-27T05:57:34.704Z,100383.69
2019-04-27T06:00:09.665Z,100387.35
2019-04-27T06:02:41.202Z,100386.23
2019-04-27T06:05:13.386Z,100392.91
2019-04-27T06:07:48.752Z,100394.98
2019-04-27T06:10:24.102Z,100393.92
2019-04-27T06:12:55.717Z,100395.39
2019-04-27T06:15:28.405Z,100392.77
2019-04-27T06:18:00.786Z,100390.71
2019-04-27T06:20:32.529Z,100387.46
2019-04-27T06:23:05.230Z,100398.05
2019-04-27T06:25:39.224Z,100393.48
2019-04-27T06:28:12.204Z,100399.98
2019-04-27T06:30:43.935Z,100401.73
2019-04-27T06:33:29.311Z,100411.33
2019-04-27T06:35:49.529Z,100416.34
2019-04-27T06:38:22.838Z,100415.98
2019-04-27T06:40:54.575Z,100421.60
2019-04-27T06:43:29.286Z,100421.66
2019-04-27T06:46:01.201Z,100435.27
2019-04-27T06:48:32.932Z,100440.49
2019-04-27T06:51:05.657Z,100443.66
2019-04-27T06:53:39.445Z,100450.17
2019-04-27T06:56:11.330Z,100460.61
2019-04-27T06:58:43.071Z,100454.15
2019-04-27T07:01:14.843Z,100458.47
2019-04-27T07:03:46.568Z,100452.23
2019-04-27T07:06:18.985Z,100455.62
2019-04-27T07:08:50.725Z,100456.55
2019-04-27T07:11:22.735Z,100463.70
2019-04-27T07:13:54.512Z,100455.96
2019-04-27T07:16:26.675Z,100464.21
2019-04-27T07:18:59.376Z,100469.03
2019-04-27T07:21:31.753Z,100481.92
2019-04-27T07:24:03.457Z,100480.70
2019-04-27T07:26:35.532Z,100476.82
2019-04-27T07:29:09.643Z,100458.96
2019-04-27T07:31:41.993Z,100473.12
2019-04-27T07:34:14.062Z,100465.53
2019-04-27T07:36:45.960Z,100476.99
2019-04-27T07:39:19.257Z,100476.46
2019-04-27T07:41:51.246Z,100482.75
2019-04-27T07:44:31.413Z,100497.00
2019-04-27T07:47:16.647Z,100498.34
2019-04-27T07:49:49.662Z,100504.01
2019-04-27T07:52:21.628Z,100492.08
2019-04-27T07:54:53.368Z,100487.58
2019-04-27T07:57:25.106Z,100487.34
2019-04-27T07:59:59.631Z,100483.20
2019-04-27T08:02:31.464Z,100491.05
2019-04-27T08:05:03.683Z,100492.48
2019-04-27T08:07:35.214Z,100500.25
2019-04-27T08:10:09.509Z,100510.93
2019-04-27T08:12:40.924Z,100507.44
2019-04-27T08:15:12.673Z,100511.81
2019-04-27T08:17:44.415Z,100510.22
2019-04-27T08:20:16.544Z,100505.25
2019-04-27T08:22:49.673Z,100509.41
2019-04-27T08:25:23.202Z,100521.48
2019-04-27T08:27:57.810Z,100524.00
2019-04-27T08:30:31.026Z,100524.75
2019-04-27T08:33:04.311Z,100520.73
2019-04-27T08:35:36.047Z,100518.06
2019-04-27T08:38:09.039Z,100523.88
2019-04-27T08:40:41.307Z,100525.63
2019-04-27T08:43:13.055Z,100529.02
2019-04-27T08:45:44.899Z,100527.77
2019-04-27T08:48:33.367Z,100530.31
2019-04-27T08:50:51.708Z,100536.30
2019-04-27T08:53:23.565Z,100535.36
2019-04-27T08:55:55.311Z,100549.52
2019-04-27T08:58:28.667Z,100554.73
2019-04-27T09:01:00.289Z,100560.03
2019-04-27T09:03:32.046Z,100556.50
2019-04-27T09:06:12.688Z,100549.64
2019-04-27T09:08:49.607Z,100547.91
2019-04-27T09:11:24.468Z,100556.92
2019-04-27T09:14:00.071Z,100558.82
2019-04-27T09:16:57.233Z,100562.94
2019-04-27T09:19:37.169Z,100557.94
2019-04-27T09:22:15.669Z,100562.09
2019-04-27T09:24:43.592Z,100556.09
2019-04-27T09:27:17.391Z,100547.41
2019-04-27T09:29:49.965Z,100543.76
2019-04-27T09:32:22.129Z,100552.35
2019-04-27T09:34:53.671Z,100564.77
2019-04-27T09:37:28.480Z,100554.91
2019-04-27T09:40:00.322Z,100540.66
2019-04-27T09:42:33.231Z,100541.21
2019-04-27T09:45:18.903Z,100535.22
2019-04-27T09:47:56.287Z,100538.92
2019-04-27T09:50:31.368Z,100518.94
2019-04-27T09:53:03.418Z,100523.95
2019-04-27T09:55:36.887Z,100544.69
2019-04-27T09:58:08.822Z,100563.56
2019-04-27T10:00:41.100Z,100565.94
2019-04-27T10:03:14.372Z,100565.84
2019-04-27T10:05:47.740Z,100571.20
2019-04-27T10:08:19.463Z,100570.00
2019-04-27T10:10:51.903Z,100564.44
2019-04-27T10:13:29.909Z,100571.80
2019-04-27T10:16:09.089Z,100564.38
2019-04-27T10:18:43.516Z,100565.50
2019-04-27T10:21:16.297Z,100558.56
2019-04-27T10:23:48.234Z,100570.69
2019-04-27T10:26:21.760Z,100567.42
2019-04-27T10:28:53.623Z,100573.95
2019-04-27T10:31:25.307Z,100563.84
2019-04-27T10:33:57.015Z,100565.41
2019-04-27T10:36:40.831Z,100570.05
2019-04-27T10:39:13.828Z,100576.91
2019-04-27T10:41:49.345Z,100573.77
2019-04-27T10:44:20.904Z,100570.55
2019-04-27T10:46:54.645Z,100570.77
2019-04-27T10:49:31.580Z,100559.06
2019-04-27T10:52:03.553Z,100555.76
2019-04-27T10:54:36.235Z,100568.88
2019-04-27T10:57:09.940Z,100577.33
2019-04-27T10:59:46.160Z,100563.03
2019-04-27T11:02:18.792Z,100570.56
2019-04-27T11:05:00.657Z,100569.11
2019-04-27T11:07:34.087Z,100566.05
2019-04-27T11:10:08.147Z,100573.38
2019-04-27T11:12:46.970Z,100570.12
2019-04-27T11:15:21.016Z,100563.48
2019-04-27T11:17:53.544Z,100564.86
2019-04-27T11:20:27.508Z,100570.58
2019-04-27T11:23:07.228Z,100572.69
2019-04-27T11:25:32.982Z,100573.55
2019-04-27T11:28:05.800Z,100565.32
2019-04-27T11:30:39.144Z,100567.23
2019-04-27T11:33:10.977Z,100579.91
2019-04-27T11:35:50.395Z,100578.32
2019-04-27T11:38:24.465Z,100585.42
2019-04-27T11:41:02.470Z,100592.77
2019-04-27T11:43:36.602Z,100580.22
2019-04-27T11:46:09.760Z,100578.09
2019-04-27T11:48:41.756Z,100584.66
2019-04-27T11:51:13.587Z,100587.86
2019-04-27T11:53:46.823Z,100591.30
2019-04-27T11:56:18.690Z,100598.44
2019-04-27T11:58:50.549Z,100593.39
2019-04-27T12:01:28.859Z,100592.22
2019-04-27T12:04:05.865Z,100598.16
2019-04-27T12:06:37.746Z,100592.66
2019-04-27T12:09:10.163Z,100584.34
2019-04-27T12:11:43.442Z,100586.42
2019-04-27T12:14:16.651Z,100582.34
2019-04-27T12:16:57.069Z,100583.35
2019-04-27T12:19:29.792Z,100578.70
2019-04-27T12:22:01.483Z,100585.73
2019-04-27T12:24:33.391Z,100584.88
2019-04-27T12:27:20.001Z,100588.62
2019-04-27T12:30:06.271Z,100585.09
2019-04-27T12:32:39.511Z,100580.58
2019-04-27T12:35:11.600Z,100574.40
2019-04-27T12:37:43.344Z,100580.72
2019-04-27T12:40:16.717Z,100583.99
2019-04-27T12:42:48.743Z,100583.97
2019-04-27T12:45:20.547Z,100581.64
2019-04-27T12:47:52.375Z,100581.61
2019-04-27T12:50:26.080Z,100591.47
2019-04-27T12:53:07.319Z,100592.87
2019-04-27T12:55:38.949Z,100595.87
2019-04-27T12:58:21.926Z,100593.45
2019-04-27T13:00:58.338Z,100582.58
2019-04-27T13:03:31.146Z,100587.69
2019-04-27T13:06:02.855Z,100580.56
2019-04-27T13:08:35.728Z,100581.72
2019-04-27T13:11:10.935Z,100583.06
2019-04-27T13:13:43.923Z,100584.84
2019-04-27T13:19:33.097Z,100588.89
2019-04-27T13:22:06.171Z,100574.24
2019-04-27T13:24:39.466Z,100581.46
2019-04-27T13:27:13.113Z,100588.19
2019-04-27T13:29:47.745Z,100589.61
2019-04-27T13:32:19.552Z,100589.13
2019-04-27T13:34:51.942Z,100593.97
2019-04-27T13:37:46.735Z,100586.59
2019-04-27T13:40:20.842Z,100593.47
2019-04-27T13:42:58.449Z,100594.52
2019-04-27T13:45:41.481Z,100592.15
2019-04-27T13:48:17.064Z,100589.52
2019-04-27T13:50:51.029Z,100591.15
2019-04-27T13:53:22.864Z,100583.47
2019-04-27T13:55:56.629Z,100586.55
2019-04-27T13:58:28.254Z,100578.56
2019-04-27T14:00:59.789Z,100579.73
2019-04-27T14:03:31.638Z,100572.82
2019-04-27T14:06:03.371Z,100575.84
2019-04-27T14:08:35.117Z,100567.89
2019-04-27T14:11:06.857Z,100571.55
2019-04-27T14:13:39.167Z,100572.02
2019-04-27T14:16:11.302Z,100571.92
2019-04-27T14:18:43.061Z,100570.64
2019-04-27T14:21:14.794Z,100574.11
2019-04-27T14:23:48.416Z,100571.09
2019-04-27T14:26:20.229Z,100568.20
2019-04-27T14:28:59.437Z,100579.56
2019-04-27T14:31:35.540Z,100575.00
2019-04-27T14:34:15.303Z,100570.84
2019-04-27T14:36:48.871Z,100579.31
2019-04-27T14:39:28.569Z,100574.66
2019-04-27T14:42:10.294Z,100569.13
2019-04-27T14:44:48.940Z,100565.55
2019-04-27T14:47:20.875Z,100567.90
2019-04-27T14:50:05.963Z,100575.39
2019-04-27T14:52:30.549Z,100575.13
2019-04-27T14:55:11.635Z,100569.61
2019-04-27T14:57:43.805Z,100572.79
2019-04-27T15:00:19.168Z,100577.38
2019-04-27T15:02:50.848Z,100580.02
2019-04-27T15:05:25.405Z,100577.02
2019-04-27T15:08:01.609Z,100570.44
2019-04-27T15:10:32.880Z,100571.59
2019-04-27T15:13:06.401Z,100571.70
2019-04-27T15:15:48.008Z,100579.13
2019-04-27T15:18:42.165Z,100574.67
2019-04-27T15:21:25.476Z,100579.32
2019-04-27T15:24:02.428Z,100574.75
2019-04-27T15:26:31.725Z,100573.36
2019-04-27T15:29:05.108Z,100585.27
2019-04-27T15:31:39.047Z,100577.05
2019-04-27T15:34:27.643Z,100577.13
2019-04-27T15:37:03.308Z,100576.09
2019-04-27T15:39:52.714Z,100574.78
2019-04-27T15:42:48.977Z,100580.02
2019-04-27T15:45:20.542Z,100579.90
2019-04-27T15:47:55.662Z,100578.17
2019-04-27T15:50:32.167Z,100584.62
2019-04-27T15:53:12.546Z,100582.36
2019-04-27T15:55:47.186Z,100581.59
2019-04-27T15:58:41.448Z,100576.75
2019-04-27T16:01:13.319Z,100581.80
2019-04-27T16:03:48.166Z,100576.33
2019-04-27T16:06:21.722Z,100574.79
2019-04-27T16:08:59.037Z,100568.36
2019-04-27T16:11:36.206Z,100555.56
2019-04-27T16:14:10.952Z,100560.09
2019-04-27T16:16:42.598Z,100557.25
2019-04-27T16:19:14.333Z,100554.77
2019-04-27T16:21:54.326Z,100564.77
2019-04-27T16:24:28.989Z,100567.46
2019-04-27T16:27:03.559Z,100561.34
2019-04-27T16:29:35.199Z,100546.94
2019-04-27T16:32:11.144Z,100538.72
2019-04-27T16:34:41.355Z,100542.96
2019-04-27T16:37:20.733Z,100537.88
2019-04-27T16:39:49.593Z,100532.34
2019-04-27T16:42:21.385Z,100537.88
2019-04-27T16:44:53.328Z,100541.30
2019-04-27T16:47:25.177Z,100537.17
2019-04-27T16:49:58.637Z,100536.80
2019-04-27T16:52:34.372Z,100534.06
2019-04-27T16:55:12.619Z,100540.47
2019-04-27T16:57:47.353Z,100547.14
2019-04-27T17:00:30.214Z,100550.81
2019-04-27T17:03:01.374Z,100538.87
2019-04-27T17:05:34.828Z,100538.06
2019-04-27T17:08:14.245Z,100536.80
2019-04-27T17:10:40.617Z,100534.25
2019-04-27T17:13:19.496Z,100535.59
2019-04-27T17:16:11.072Z,100542.76
2019-04-27T17:19:06.230Z,100548.70
2019-04-27T17:21:41.258Z,100546.69
2019-04-27T17:24:17.934Z,100555.59
2019-04-27T17:26:54.393Z,100562.63
2019-04-27T17:29:32.617Z,100558.14
2019-04-27T17:32:06.743Z,100550.81
2019-04-27T17:34:42.233Z,100553.73
2019-04-27T17:37:20.564Z,100556.07
2019-04-27T17:39:53.570Z,100562.86
2019-04-27T17:42:27.499Z,100559.67
2019-04-27T17:45:00.562Z,100561.76
2019-04-27T17:47:33.037Z,100559.98
2019-04-27T17:50:05.677Z,100561.30
2019-04-27T17:52:43.563Z,100560.50
2019-04-27T17:55:17.860Z,100551.80
2019-04-27T17:57:50.493Z,100552.71
2019-04-27T18:00:24.060Z,100544.02
2019-04-27T18:02:58.059Z,100548.79
2019-04-27T18:05:39.019Z,100541.61
2019-04-27T18:08:18.354Z,100545.63
2019-04-27T18:10:57.540Z,100554.98
2019-04-27T18:13:30.956Z,100557.05
2019-04-27T18:16:08.988Z,100562.37
2019-04-27T18:19:05.084Z,100561.52
2019-04-27T18:21:38.640Z,100563.80
2019-04-27T18:24:18.543Z,100564.50
2019-04-27T18:27:08.999Z,100566.00
2019-04-27T18:29:42.111Z,100563.59
2019-04-27T18:32:17.949Z,100567.87
2019-04-27T18:34:55.537Z,100569.27
2019-04-27T18:37:28.284Z,100576.41
2019-04-27T18:40:00.011Z,100578.92
2019-04-27T18:42:31.768Z,100576.96
2019-04-27T18:45:08.128Z,100587.14
2019-04-27T18:47:41.492Z,100587.73
2019-04-27T18:50:24.268Z,100589.95
2019-04-27T18:52:58.136Z,100593.44
2019-04-27T18:55:30.563Z,100598.15
2019-04-27T18:58:02.475Z,100599.42
2019-04-27T19:00:35.455Z,100606.68
2019-04-27T19:03:09.323Z,100614.25
2019-04-27T19:05:43.583Z,100611.66
2019-04-27T19:08:15.292Z,100614.06
2019-04-27T19:10:47.297Z,100623.22
2019-04-27T19:13:19.308Z,100623.59
2019-04-27T19:15:54.025Z,100618.70
2019-04-27T19:18:25.857Z,100617.24
2019-04-27T19:20:58.450Z,100617.98
2019-04-27T19:23:31.199Z,100617.13
2019-04-27T19:26:12.107Z,100621.60
2019-04-27T19:29:03.078Z,100630.67
2019-04-27T19:32:00.158Z,100621.52
2019-04-27T19:34:31.794Z,100616.20
2019-04-27T19:37:08.296Z,100617.80
2019-04-27T19:39:39.829Z,100607.83
2019-04-27T19:42:23.922Z,100610.52
2019-04-27T19:44:59.048Z,100606.76
2019-04-27T19:47:38.461Z,100610.09
2019-04-27T19:50:13.814Z,100615.97
2019-04-27T19:52:58.623Z,100622.47
2019-04-27T19:55:33.811Z,100624.60
2019-04-27T19:58:13.932Z,100626.80
2019-04-27T20:00:51.950Z,100627.75
2019-04-27T20:03:39.834Z,100621.11
2019-04-27T20:06:11.509Z,100622.39
2019-04-27T20:08:54.186Z,100629.45
2019-04-27T20:11:32.932Z,100637.44
2019-04-27T20:14:14.870Z,100634.20
2019-04-27T20:16:51.939Z,100625.26
2019-04-27T20:19:32.038Z,100628.56
2019-04-27T20:22:08.266Z,100634.20
2019-04-27T20:24:44.614Z,100636.28
2019-04-27T20:27:18.096Z,100640.69
2019-04-27T20:29:58.480Z,100643.55
2019-04-27T20:32:40.671Z,100638.45
2019-04-27T20:35:12.962Z,100641.88
2019-04-27T20:37:45.988Z,100648.80
2019-04-27T20:40:22.185Z,100652.51
2019-04-27T20:42:59.470Z,100650.98
2019-04-27T20:45:32.744Z,100652.51
2019-04-27T20:48:06.244Z,100650.41
2019-04-27T20:50:38.003Z,100653.00
2019-04-27T20:53:13.731Z,100647.75
2019-04-27T20:55:48.453Z,100650.22
2019-04-27T21:01:13.039Z,100663.14
2019-04-27T21:03:57.347Z,100664.17
2019-04-27T21:06:37.723Z,100671.97
2019-04-27T21:09:21.304Z,100661.22
2019-04-27T21:12:00.403Z,100658.63
2019-04-27T21:14:35.259Z,100662.35
2019-04-27T21:17:14.730Z,100657.58
2019-04-27T21:19:48.609Z,100648.36
2019-04-27T21:22:31.469Z,100641.39
2019-04-27T21:25:08.018Z,100641.08
2019-04-27T21:27:43.801Z,100636.53
2019-04-27T21:30:18.933Z,100647.25
2019-04-27T21:32:54.361Z,100636.61
2019-04-27T21:35:29.229Z,100642.72
2019-04-27T21:38:02.218Z,100636.05
2019-04-27T21:40:36.945Z,100625.78
2019-04-27T21:43:11.330Z,100621.41
2019-04-27T21:45:47.788Z,100621.89
2019-04-27T21:48:24.351Z,100623.67
2019-04-27T21:50:58.683Z,100621.59
2019-04-27T21:53:35.814Z,100618.08
2019-04-27T21:56:11.834Z,100626.16
2019-04-27T21:58:51.138Z,100623.77
2019-04-27T22:01:31.671Z,100618.45
2019-04-27T22:04:15.777Z,100621.00
2019-04-27T22:06:51.106Z,100624.25
2019-04-27T22:09:23.688Z,100633.51
2019-04-27T22:12:02.468Z,100629.45
2019-04-27T22:14:46.562Z,100636.05
2019-04-27T22:17:25.257Z,100637.12
2019-04-27T22:19:58.266Z,100632.66
2019-04-27T22:22:31.765Z,100634.84
2019-04-27T22:25:07.579Z,100632.56
2019-04-27T22:27:39.119Z,100626.67
2019-04-27T22:30:11.226Z,100623.41
2019-04-27T22:32:42.950Z,100629.78
2019-04-27T22:35:15.351Z,100629.59
2019-04-27T22:37:47.089Z,100624.16
2019-04-27T22:40:21.480Z,100629.09
2019-04-27T22:43:11.851Z,100635.06
2019-04-27T22:45:45.196Z,100631.37
2019-04-27T22:48:16.977Z,100634.22
2019-04-27T22:50:48.613Z,100630.80
2019-04-27T22:53:21.194Z,100632.54
2019-04-27T22:56:11.442Z,100638.80
2019-04-27T22:58:57.485Z,100629.98
2019-04-27T23:01:27.746Z,100629.94
2019-04-27T23:04:07.122Z,100634.49
2019-04-27T23:06:38.716Z,100629.84
2019-04-27T23:09:11.774Z,100632.59
2019-04-27T23:11:45.616Z,100636.20
2019-04-27T23:14:17.492Z,100645.31
2019-04-27T23:16:50.867Z,100646.30
2019-04-27T23:19:24.055Z,100642.53
2019-04-27T23:21:55.792Z,100642.34
2019-04-27T23:24:27.645Z,100638.95
2019-04-27T23:27:03.408Z,100639.14
2019-04-27T23:29:33.593Z,100636.30
2019-04-27T23:32:08.503Z,100637.81
2019-04-27T23:34:41.495Z,100628.90
2019-04-27T23:37:13.470Z,100628.73
2019-04-27T23:40:03.821Z,100628.16
2019-04-27T23:42:35.420Z,100621.52
2019-04-27T23:45:12.112Z,100619.98
2019-04-27T23:47:44.472Z,100614.86
2019-04-27T23:50:19.237Z,100609.45
2019-04-27T23:52:56.935Z,100618.56
2019-04-27T23:55:34.363Z,100616.95
2019-04-27T23:58:06.371Z,100618.27
